createdAt,value
2022-09-24T00:02:19.872Z,7.18
2022-09-24T00:04:47.932Z,7.80
2022-09-24T00:07:15.994Z,7.38
2022-09-24T00:09:44.019Z,7.07
2022-09-24T00:12:13.170Z,7.82
2022-09-24T00:14:41.396Z,7.65
2022-09-24T00:17:09.441Z,6.90
2022-09-24T00:19:39.002Z,7.28
2022-09-24T00:22:07.087Z,7.30
2022-09-24T00:24:53.223Z,7.50
2022-09-24T00:27:21.212Z,7.32
2022-09-24T00:29:49.455Z,7.38
2022-09-24T00:32:17.643Z,7.32
2022-09-24T00:34:47.846Z,7.15
2022-09-24T00:37:15.846Z,7.72
2022-09-24T00:39:43.941Z,7.25
2022-09-24T00:42:12.704Z,6.97
2022-09-24T00:44:54.363Z,7.15
2022-09-24T00:47:36.079Z,7.28
2022-09-24T00:50:25.813Z,7.60
2022-09-24T00:52:59.772Z,7.50
2022-09-24T00:55:28.522Z,7.57
2022-09-24T00:58:01.396Z,7.93
2022-09-24T01:00:30.062Z,7.75
2022-09-24T01:03:04.952Z,8.30
2022-09-24T01:05:35.266Z,7.50
2022-09-24T01:08:03.999Z,7.80
2022-09-24T01:10:52.188Z,7.25
2022-09-24T01:13:43.404Z,6.90
2022-09-24T01:16:20.900Z,7.73
2022-09-24T01:18:58.041Z,6.93
2022-09-24T01:21:39.280Z,7.05
2022-09-24T01:24:43.300Z,6.57
2022-09-24T01:27:19.834Z,6.53
2022-09-24T01:30:03.134Z,6.90
2022-09-24T01:32:38.351Z,7.63
2022-09-24T01:35:13.890Z,7.22
2022-09-24T01:37:47.449Z,7.32
2022-09-24T01:40:17.002Z,8.25
2022-09-24T01:42:47.593Z,8.65
2022-09-24T01:45:18.596Z,8.50
2022-09-24T01:47:47.290Z,7.75
2022-09-24T01:50:20.259Z,8.10
2022-09-24T01:52:54.691Z,7.85
2022-09-24T01:55:28.310Z,7.28
2022-09-24T01:58:00.774Z,7.85
2022-09-24T02:00:30.241Z,7.30
2022-09-24T02:03:07.789Z,8.48
2022-09-24T02:05:42.506Z,7.97
2022-09-24T02:08:18.209Z,8.35
2022-09-24T02:10:53.740Z,8.30
2022-09-24T02:13:25.797Z,7.82
2022-09-24T02:18:34.076Z,8.13
2022-09-24T02:21:07.734Z,7.93
2022-09-24T02:23:41.671Z,7.90
2022-09-24T02:26:10.148Z,8.25
2022-09-24T02:28:38.400Z,8.27
2022-09-24T02:31:12.092Z,8.52
2022-09-24T02:34:02.993Z,7.88
2022-09-24T02:36:31.569Z,7.57
2022-09-24T02:38:59.809Z,7.07
2022-09-24T02:41:30.016Z,7.38
2022-09-24T02:43:58.211Z,7.57
2022-09-24T02:46:27.688Z,8.68
2022-09-24T02:48:55.827Z,8.38
2022-09-24T02:51:23.830Z,8.18
2022-09-24T02:53:51.894Z,8.10
2022-09-24T02:56:20.243Z,7.65
2022-09-24T02:58:48.230Z,7.88
2022-09-24T03:01:16.545Z,8.02
2022-09-24T03:03:46.249Z,7.65
2022-09-24T03:06:14.472Z,8.35
2022-09-24T03:08:43.142Z,9.20
2022-09-24T03:11:16.367Z,8.60
2022-09-24T03:13:46.659Z,8.75
2022-09-24T03:16:14.895Z,7.93
2022-09-24T03:18:45.013Z,7.47
2022-09-24T03:21:14.835Z,7.53
2022-09-24T03:23:43.364Z,7.07
2022-09-24T03:26:14.962Z,8.02
2022-09-24T03:28:43.760Z,7.78
2022-09-24T03:31:12.647Z,8.30
2022-09-24T03:33:42.884Z,7.28
2022-09-24T03:36:15.468Z,8.43
2022-09-24T03:38:45.681Z,8.25
2022-09-24T03:41:14.922Z,8.32
2022-09-24T03:43:43.626Z,8.27
2022-09-24T03:46:13.723Z,8.45
2022-09-24T03:48:42.875Z,7.95
2022-09-24T03:51:14.850Z,8.85
2022-09-24T03:53:42.971Z,9.00
2022-09-24T03:56:11.913Z,9.02
2022-09-24T03:58:41.957Z,8.60
2022-09-24T04:01:21.287Z,8.48
2022-09-24T04:03:50.530Z,7.78
2022-09-24T04:06:25.613Z,7.93
2022-09-24T04:08:54.310Z,7.78
2022-09-24T04:11:22.503Z,7.78
2022-09-24T04:13:50.864Z,8.07
2022-09-24T04:16:19.446Z,8.00
2022-09-24T04:18:48.021Z,7.80
2022-09-24T04:21:16.008Z,7.72
2022-09-24T04:23:45.512Z,7.30
2022-09-24T04:26:14.196Z,7.78
2022-09-24T04:28:42.386Z,7.03
2022-09-24T04:31:10.454Z,7.57
2022-09-24T04:33:38.670Z,7.57
2022-09-24T04:36:06.789Z,7.90
2022-09-24T04:38:34.844Z,7.80
2022-09-24T04:41:09.007Z,7.72
2022-09-24T04:43:37.629Z,8.60
2022-09-24T04:46:06.442Z,8.15
2022-09-24T04:48:34.627Z,8.38
2022-09-24T04:51:03.351Z,8.07
2022-09-24T04:53:32.762Z,7.85
2022-09-24T04:56:01.125Z,8.80
2022-09-24T04:58:30.852Z,7.90
2022-09-24T05:00:58.855Z,8.63
2022-09-24T05:03:27.080Z,8.88
2022-09-24T05:05:55.514Z,8.00
2022-09-24T05:08:24.042Z,8.38
2022-09-24T05:10:53.362Z,8.60
2022-09-24T05:13:21.823Z,8.65
2022-09-24T05:15:51.291Z,9.02
2022-09-24T05:18:19.442Z,8.23
2022-09-24T05:20:47.483Z,8.50
2022-09-24T05:23:15.611Z,9.00
2022-09-24T05:25:58.017Z,8.63
2022-09-24T05:28:26.617Z,9.15
2022-09-24T05:31:02.113Z,9.90
2022-09-24T05:33:30.239Z,10.25
2022-09-24T05:35:59.054Z,9.90
2022-09-24T05:38:27.688Z,9.35
2022-09-24T05:40:55.812Z,9.13
2022-09-24T05:43:27.781Z,9.52
2022-09-24T05:46:00.033Z,10.07
2022-09-24T05:48:28.282Z,10.20
2022-09-24T05:50:56.432Z,9.57
2022-09-24T05:53:24.602Z,10.32
2022-09-24T05:55:52.808Z,9.95
2022-09-24T05:58:20.945Z,9.43
2022-09-24T06:00:49.222Z,10.23
2022-09-24T06:03:20.567Z,11.10
2022-09-24T06:05:50.310Z,10.88
2022-09-24T06:08:20.253Z,10.30
2022-09-24T06:10:49.068Z,10.63
2022-09-24T06:13:20.859Z,11.20
2022-09-24T06:15:49.060Z,10.43
2022-09-24T06:18:18.558Z,10.90
2022-09-24T06:20:46.939Z,11.20
2022-09-24T06:23:14.999Z,11.88
2022-09-24T06:25:43.537Z,11.82
2022-09-24T06:28:11.614Z,11.52
2022-09-24T06:30:41.289Z,12.82
2022-09-24T06:33:12.002Z,12.60
2022-09-24T06:35:44.149Z,13.02
2022-09-24T06:38:14.259Z,12.93
2022-09-24T06:40:43.220Z,13.98
2022-09-24T06:43:13.429Z,12.93
2022-09-24T06:45:43.760Z,14.10
2022-09-24T06:48:14.273Z,14.40
2022-09-24T06:50:47.238Z,14.48
2022-09-24T06:53:15.992Z,14.32
2022-09-24T06:55:46.790Z,13.73
2022-09-24T06:58:17.676Z,14.32
2022-09-24T07:00:54.148Z,15.00
2022-09-24T07:03:22.978Z,14.43
2022-09-24T07:05:52.344Z,14.75
2022-09-24T07:08:20.836Z,14.00
2022-09-24T07:10:50.231Z,15.13
2022-09-24T07:13:18.406Z,13.15
2022-09-24T07:15:46.936Z,14.30
2022-09-24T07:18:15.081Z,13.00
2022-09-24T07:20:43.286Z,13.82
2022-09-24T07:23:13.639Z,14.38
2022-09-24T07:25:41.742Z,14.32
2022-09-24T07:28:13.667Z,13.85
2022-09-24T07:30:42.033Z,14.73
2022-09-24T07:33:10.509Z,14.15
2022-09-24T07:35:40.340Z,15.82
2022-09-24T07:38:13.168Z,13.60
2022-09-24T07:40:42.410Z,14.93
2022-09-24T07:43:14.207Z,16.33
2022-09-24T07:45:43.479Z,16.33
2022-09-24T07:48:12.853Z,15.40
2022-09-24T07:50:43.003Z,16.50
2022-09-24T07:53:15.208Z,16.20
2022-09-24T07:55:43.436Z,16.63
2022-09-24T07:58:14.643Z,18.23
2022-09-24T08:00:43.483Z,17.10
2022-09-24T08:03:11.967Z,15.00
2022-09-24T08:05:45.144Z,16.58
2022-09-24T08:08:14.860Z,17.60
2022-09-24T08:10:43.548Z,17.85
2022-09-24T08:13:12.158Z,17.42
2022-09-24T08:15:40.604Z,18.02
2022-09-24T08:18:08.878Z,17.13
2022-09-24T08:20:39.776Z,16.75
2022-09-24T08:23:11.145Z,17.67
2022-09-24T08:25:40.700Z,16.13
2022-09-24T08:28:11.252Z,16.75
2022-09-24T08:30:40.889Z,16.02
2022-09-24T08:33:09.275Z,17.55
2022-09-24T08:35:39.920Z,16.40
2022-09-24T08:38:08.919Z,16.25
2022-09-24T08:40:46.031Z,17.45
2022-09-24T08:43:35.703Z,16.48
2022-09-24T08:46:32.329Z,15.90
2022-09-24T08:49:03.374Z,16.33
2022-09-24T08:51:37.532Z,16.10
2022-09-24T08:54:09.652Z,17.10
2022-09-24T08:56:44.489Z,18.58
2022-09-24T08:59:27.701Z,16.65
2022-09-24T09:02:14.020Z,18.40
2022-09-24T09:04:55.076Z,18.20
2022-09-24T09:07:29.217Z,15.60
2022-09-24T09:10:03.419Z,16.73
2022-09-24T09:12:38.497Z,17.60
2022-09-24T09:15:11.750Z,17.92
2022-09-24T09:17:47.209Z,17.83
2022-09-24T09:20:20.000Z,17.85
2022-09-24T09:22:51.366Z,19.02
2022-09-24T09:25:23.910Z,18.92
2022-09-24T09:27:59.437Z,19.10
2022-09-24T09:30:31.153Z,19.42
2022-09-24T09:33:17.712Z,19.95
2022-09-24T09:35:56.283Z,19.55
2022-09-24T09:38:34.491Z,19.23
2022-09-24T09:41:15.171Z,18.90
2022-09-24T09:43:45.109Z,19.67
2022-09-24T09:46:19.505Z,18.75
2022-09-24T09:48:52.244Z,20.48
2022-09-24T09:51:23.443Z,21.45
2022-09-24T09:53:59.907Z,20.40
2022-09-24T09:56:31.118Z,20.75
2022-09-24T09:59:19.179Z,22.25
2022-09-24T10:01:55.676Z,21.45
2022-09-24T10:04:39.816Z,22.88
2022-09-24T10:07:11.333Z,22.85
2022-09-24T10:09:40.719Z,23.35
2022-09-24T10:12:17.856Z,22.65
2022-09-24T10:14:59.678Z,21.23
2022-09-24T10:17:35.048Z,21.88
2022-09-24T10:20:09.270Z,22.27
2022-09-24T10:22:40.289Z,21.20
2022-09-24T10:25:19.621Z,21.97
2022-09-24T10:27:48.457Z,22.35
2022-09-24T10:30:36.341Z,21.73
2022-09-24T10:33:08.747Z,22.02
2022-09-24T10:35:38.969Z,22.13
2022-09-24T10:38:19.213Z,23.25
2022-09-24T10:40:47.994Z,22.20
2022-09-24T10:43:21.857Z,23.15
2022-09-24T10:46:12.933Z,20.65
2022-09-24T10:48:46.297Z,20.50
2022-09-24T10:51:32.283Z,21.45
2022-09-24T10:54:18.931Z,19.67
2022-09-24T10:56:53.630Z,17.40
2022-09-24T10:59:44.222Z,17.50
2022-09-24T11:03:03.078Z,17.25
2022-09-24T11:05:38.330Z,18.15
2022-09-24T11:08:23.292Z,19.13
2022-09-24T11:11:16.170Z,17.75
2022-09-24T11:13:56.183Z,17.33
2022-09-24T11:17:04.539Z,16.10
2022-09-24T11:20:00.864Z,16.25
2022-09-24T11:22:44.254Z,14.07
2022-09-24T11:25:36.506Z,13.68
2022-09-24T11:28:24.549Z,13.75
2022-09-24T11:31:04.056Z,9.82
2022-09-24T11:33:50.450Z,11.50
2022-09-24T11:36:33.563Z,11.98
2022-09-24T11:39:31.596Z,11.30
2022-09-24T11:42:08.607Z,9.77
2022-09-24T11:45:18.762Z,9.75
2022-09-24T11:48:08.505Z,10.57
2022-09-24T11:50:51.454Z,10.95
2022-09-24T11:53:33.197Z,11.93
2022-09-24T11:56:13.480Z,10.82
2022-09-24T11:58:48.343Z,11.80
2022-09-24T12:01:21.205Z,11.70
2022-09-24T12:03:58.388Z,13.02
2022-09-24T12:06:33.298Z,12.32
2022-09-24T12:09:13.979Z,12.25
2022-09-24T12:11:49.544Z,12.13
2022-09-24T12:14:22.956Z,16.30
2022-09-24T12:17:05.722Z,15.13
2022-09-24T12:19:43.172Z,15.07
2022-09-24T12:22:12.975Z,15.25
2022-09-24T12:24:47.105Z,13.80
2022-09-24T12:27:21.886Z,15.35
2022-09-24T12:30:25.010Z,16.15
2022-09-24T12:33:00.272Z,14.70
2022-09-24T12:35:43.757Z,16.45
2022-09-24T12:38:17.652Z,15.10
2022-09-24T12:41:19.804Z,15.32
2022-09-24T12:43:55.406Z,15.23
2022-09-24T12:46:28.561Z,16.63
2022-09-24T12:48:57.209Z,16.52
2022-09-24T12:51:34.884Z,19.25
2022-09-24T12:54:16.426Z,18.77
2022-09-24T12:56:44.871Z,20.42
2022-09-24T12:59:27.944Z,21.02
2022-09-24T13:01:56.674Z,22.48
2022-09-24T13:04:30.180Z,23.02
2022-09-24T13:06:58.297Z,22.40
2022-09-24T13:09:37.469Z,21.20
2022-09-24T13:12:21.246Z,17.65
2022-09-24T13:14:58.216Z,19.77
2022-09-24T13:17:26.360Z,20.20
2022-09-24T13:19:59.911Z,22.70
2022-09-24T13:22:30.773Z,23.73
2022-09-24T13:25:23.749Z,22.88
2022-09-24T13:28:04.597Z,22.35
2022-09-24T13:30:41.648Z,22.52
2022-09-24T13:33:24.875Z,22.55
2022-09-24T13:36:12.515Z,23.42
2022-09-24T13:38:50.219Z,22.58
2022-09-24T13:41:31.139Z,23.50
2022-09-24T13:44:05.399Z,23.40
2022-09-24T13:46:37.765Z,23.55
2022-09-24T13:49:13.480Z,24.10
2022-09-24T13:51:43.576Z,24.17
2022-09-24T13:54:21.103Z,24.42
2022-09-24T13:57:00.644Z,22.92
2022-09-24T13:59:29.050Z,20.80
2022-09-24T14:02:01.539Z,21.23
2022-09-24T14:04:29.758Z,21.13
2022-09-24T14:06:59.748Z,21.73
2022-09-24T14:09:31.697Z,23.05
2022-09-24T14:14:36.939Z,20.90
2022-09-24T14:17:13.086Z,22.73
2022-09-24T14:19:41.311Z,23.60
2022-09-24T14:22:19.204Z,23.60
2022-09-24T14:24:56.895Z,23.48
2022-09-24T14:27:27.454Z,23.35
2022-09-24T14:29:59.796Z,24.08
2022-09-24T14:32:32.976Z,23.70
2022-09-24T14:35:05.288Z,24.85
2022-09-24T14:37:37.153Z,22.50
2022-09-24T14:42:41.298Z,23.25
2022-09-24T14:45:11.967Z,23.67
2022-09-24T14:47:41.290Z,23.73
2022-09-24T14:50:32.674Z,24.38
2022-09-24T14:53:02.998Z,24.63
2022-09-24T14:55:39.926Z,23.80
2022-09-24T14:58:25.014Z,23.38
2022-09-24T15:00:56.200Z,23.50
2022-09-24T15:03:33.384Z,24.27
2022-09-24T15:06:07.556Z,24.20
2022-09-24T15:08:35.736Z,23.80
2022-09-24T15:11:08.931Z,25.05
2022-09-24T15:13:39.188Z,24.70
2022-09-24T15:16:20.473Z,24.15
2022-09-24T15:19:00.483Z,27.45
2022-09-24T15:21:30.047Z,27.98
2022-09-24T15:23:58.370Z,23.73
2022-09-24T15:26:32.125Z,24.63
2022-09-24T15:29:00.725Z,24.67
2022-09-24T15:31:29.422Z,24.10
2022-09-24T15:33:58.884Z,24.88
2022-09-24T15:36:27.336Z,26.70
2022-09-24T15:39:03.670Z,25.80
2022-09-24T15:41:31.749Z,24.95
2022-09-24T15:44:00.807Z,24.65
2022-09-24T15:46:28.935Z,26.27
2022-09-24T15:48:58.553Z,25.25
2022-09-24T15:51:26.536Z,26.23
2022-09-24T15:53:54.570Z,26.65
2022-09-24T15:56:22.886Z,25.55
2022-09-24T15:58:51.720Z,26.50
2022-09-24T16:01:19.883Z,28.02
2022-09-24T16:03:47.998Z,27.75
2022-09-24T16:06:17.304Z,25.65
2022-09-24T16:08:45.397Z,27.23
2022-09-24T16:11:13.374Z,27.05
2022-09-24T16:13:42.017Z,28.27
2022-09-24T16:16:10.283Z,28.90
2022-09-24T16:18:39.806Z,29.75
2022-09-24T16:21:08.826Z,29.35
2022-09-24T16:23:38.314Z,29.30
2022-09-24T16:26:06.929Z,30.58
2022-09-24T16:28:36.269Z,28.75
2022-09-24T16:31:07.561Z,29.90
2022-09-24T16:33:40.576Z,29.55
2022-09-24T16:36:09.552Z,29.63
2022-09-24T16:38:40.663Z,29.42
2022-09-24T16:41:10.499Z,31.83
2022-09-24T16:43:38.645Z,30.27
2022-09-24T16:46:10.277Z,29.73
2022-09-24T16:48:39.116Z,33.28
2022-09-24T16:51:09.726Z,32.70
2022-09-24T16:53:39.807Z,33.58
2022-09-24T16:56:13.182Z,31.50
2022-09-24T16:58:42.476Z,32.33
2022-09-24T17:01:12.931Z,33.25
2022-09-24T17:03:41.577Z,33.70
2022-09-24T17:06:20.375Z,32.20
2022-09-24T17:09:10.641Z,32.85
2022-09-24T17:11:41.384Z,30.27
2022-09-24T17:14:11.695Z,29.52
2022-09-24T17:16:42.623Z,29.60
2022-09-24T17:19:12.286Z,30.35
2022-09-24T17:21:43.310Z,31.50
2022-09-24T17:24:22.106Z,30.95
2022-09-24T17:26:50.696Z,28.95
2022-09-24T17:29:20.898Z,30.65
2022-09-24T17:31:49.401Z,29.73
2022-09-24T17:34:18.005Z,29.45
2022-09-24T17:36:46.186Z,29.90
2022-09-24T17:39:18.217Z,30.30
2022-09-24T17:41:47.124Z,31.63
2022-09-24T17:44:17.230Z,30.92
2022-09-24T17:46:45.909Z,33.63
2022-09-24T17:49:15.486Z,33.97
2022-09-24T17:51:44.152Z,32.33
2022-09-24T17:54:17.553Z,33.00
2022-09-24T17:56:51.529Z,34.53
2022-09-24T17:59:26.919Z,36.40
2022-09-24T18:01:55.848Z,34.45
2022-09-24T18:04:25.833Z,34.75
2022-09-24T18:06:54.144Z,35.67
2022-09-24T18:09:28.861Z,34.90
2022-09-24T18:11:58.209Z,33.35
2022-09-24T18:14:26.825Z,34.97
2022-09-24T18:16:54.845Z,34.17
2022-09-24T18:19:23.123Z,35.40
2022-09-24T18:21:54.571Z,35.33
2022-09-24T18:24:25.989Z,34.75
2022-09-24T18:26:54.116Z,35.22
2022-09-24T18:29:28.793Z,36.42
2022-09-24T18:31:57.015Z,35.65
2022-09-24T18:34:25.705Z,35.30
2022-09-24T18:36:53.884Z,34.88
2022-09-24T18:39:25.479Z,35.45
2022-09-24T18:44:25.215Z,37.40
2022-09-24T18:46:53.437Z,37.55
2022-09-24T18:49:26.781Z,37.38
2022-09-24T18:51:57.512Z,38.78
2022-09-24T18:54:27.251Z,37.90
2022-09-24T18:56:55.426Z,40.13
2022-09-24T18:59:23.931Z,39.10
2022-09-24T19:01:52.346Z,38.30
2022-09-24T19:04:20.824Z,38.30
2022-09-24T19:06:50.515Z,39.10
2022-09-24T19:09:23.985Z,39.85
2022-09-24T19:11:55.862Z,38.35
2022-09-24T19:14:40.046Z,38.33
2022-09-24T19:17:08.329Z,38.75
2022-09-24T19:19:36.847Z,36.95
2022-09-24T19:22:06.670Z,35.40
2022-09-24T19:24:34.841Z,36.25
2022-09-24T19:27:04.416Z,37.05
2022-09-24T19:29:33.009Z,37.78
2022-09-24T19:32:03.288Z,38.15
2022-09-24T19:34:31.833Z,39.92
2022-09-24T19:37:00.543Z,38.72
2022-09-24T19:39:28.797Z,40.88
2022-09-24T19:41:57.721Z,38.50
2022-09-24T19:44:28.218Z,40.13
2022-09-24T19:47:00.851Z,37.65
2022-09-24T19:49:28.919Z,38.70
2022-09-24T19:51:56.859Z,36.67
2022-09-24T19:54:24.985Z,37.53
2022-09-24T19:56:54.611Z,36.90
2022-09-24T19:59:22.870Z,36.22
2022-09-24T20:01:52.357Z,38.08
2022-09-24T20:04:21.296Z,41.47
2022-09-24T20:06:49.318Z,39.05
2022-09-24T20:09:23.261Z,39.90
2022-09-24T20:11:51.769Z,38.33
2022-09-24T20:14:21.857Z,37.50
2022-09-24T20:16:54.626Z,38.13
2022-09-24T20:19:26.019Z,37.30
2022-09-24T20:21:59.011Z,37.70
2022-09-24T20:24:27.312Z,34.92
2022-09-24T20:27:13.122Z,35.65
2022-09-24T20:29:43.271Z,35.63
2022-09-24T20:32:19.474Z,35.38
2022-09-24T20:34:50.322Z,34.50
2022-09-24T20:37:18.588Z,34.95
2022-09-24T20:39:47.119Z,34.28
2022-09-24T20:42:15.631Z,28.45
2022-09-24T20:44:48.995Z,27.30
2022-09-24T20:47:21.900Z,21.20
2022-09-24T20:49:50.023Z,23.42
2022-09-24T20:52:18.128Z,22.88
2022-09-24T20:54:47.094Z,23.13
2022-09-24T20:57:15.451Z,21.67
2022-09-24T20:59:43.741Z,24.10
2022-09-24T21:02:17.966Z,24.33
2022-09-24T21:04:47.435Z,22.90
2022-09-24T21:07:15.594Z,22.38
2022-09-24T21:09:43.836Z,23.13
2022-09-24T21:12:12.154Z,22.83
2022-09-24T21:14:40.488Z,22.80
2022-09-24T21:17:10.347Z,20.98
2022-09-24T21:19:38.433Z,18.05
2022-09-24T21:22:07.946Z,20.05
2022-09-24T21:24:36.197Z,18.40
2022-09-24T21:27:13.515Z,18.60
2022-09-24T21:29:43.140Z,19.83
2022-09-24T21:32:11.400Z,20.17
2022-09-24T21:34:42.719Z,18.92
2022-09-24T21:37:14.521Z,20.80
2022-09-24T21:39:46.289Z,19.58
2022-09-24T21:42:17.088Z,20.17
2022-09-24T21:44:47.245Z,23.15
2022-09-24T21:47:16.556Z,21.90
2022-09-24T21:49:48.040Z,22.67
2022-09-24T21:52:17.417Z,23.63
2022-09-24T21:54:45.429Z,22.10
2022-09-24T21:57:13.429Z,22.58
2022-09-24T21:59:59.214Z,20.70
2022-09-24T22:02:27.664Z,23.02
2022-09-24T22:05:00.927Z,23.98
2022-09-24T22:07:31.021Z,23.00
2022-09-24T22:09:59.320Z,24.55
2022-09-24T22:12:27.843Z,23.17
2022-09-24T22:14:58.758Z,23.65
2022-09-24T22:17:27.309Z,23.75
2022-09-24T22:19:55.390Z,24.08
2022-09-24T22:22:23.562Z,23.35
2022-09-24T22:24:53.141Z,24.23
2022-09-24T22:27:26.096Z,25.85
2022-09-24T22:29:54.636Z,26.50
2022-09-24T22:32:22.725Z,26.42
2022-09-24T22:35:11.181Z,24.42
2022-09-24T22:37:39.604Z,25.00
2022-09-24T22:40:09.896Z,24.83
2022-09-24T22:42:38.032Z,27.13
2022-09-24T22:45:08.023Z,27.30
2022-09-24T22:47:35.999Z,27.30
2022-09-24T22:50:04.219Z,27.80
2022-09-24T22:52:32.231Z,27.45
2022-09-24T22:55:00.251Z,28.52
2022-09-24T22:57:29.649Z,28.83
2022-09-24T23:00:01.404Z,30.75
2022-09-24T23:02:29.827Z,29.63
2022-09-24T23:04:58.068Z,30.75
2022-09-24T23:07:26.261Z,30.83
2022-09-24T23:09:54.457Z,29.42
2022-09-24T23:12:25.408Z,31.58
2022-09-24T23:14:58.338Z,30.75
2022-09-24T23:17:29.543Z,31.30
2022-09-24T23:19:57.780Z,32.87
2022-09-24T23:22:25.952Z,30.45
2022-09-24T23:24:53.995Z,30.80
2022-09-24T23:27:22.379Z,30.65
2022-09-24T23:29:53.696Z,29.52
2022-09-24T23:32:23.263Z,30.50
2022-09-24T23:34:51.301Z,29.35
2022-09-24T23:37:22.047Z,29.13
2022-09-24T23:39:52.742Z,28.75
2022-09-24T23:42:21.320Z,29.55
2022-09-24T23:44:49.589Z,30.90
2022-09-24T23:47:18.164Z,29.17
2022-09-24T23:49:47.674Z,30.50
2022-09-24T23:52:16.308Z,30.08
2022-09-24T23:54:44.375Z,28.58
2022-09-24T23:57:12.356Z,29.58
2022-09-24T23:59:40.716Z,29.48
